Time;durP1;ratioP1;P1;durP2;ratioP2;P2;SDS_P1;SDS_P2;PMS_P1;PMS_P2;Temp;Humidity;BMP_temperature;BMP_pressure;BME280_temperature;BME280_humidity;BME280_pressure;Samples;Min_cycle;Max_cycle;Signal;HPM_P1;HPM_P2
2022/06/04 00:00:29;;;;;;;12.97;10.50;;;23.40;63.80;;;;;;5029783;28;20518;-43
2022/06/04 00:02:55;;;;;;;12.47;11.47;;;23.30;64.10;;;;;;5029603;28;20420;-43
2022/06/04 00:05:26;;;;;;;12.90;11.70;;;23.30;63.90;;;;;;5029504;28;20446;-45
2022/06/04 00:07:53;;;;;;;12.20;11.17;;;23.30;63.60;;;;;;5027459;28;20510;-44
2022/06/04 00:15:57;;;;;;;11.60;10.60;;;23.20;63.70;;;;;;5029577;28;20457;-44
2022/06/04 00:18:24;;;;;;;12.47;11.17;;;23.00;64.60;;;;;;5029673;28;20791;-43
2022/06/04 00:20:51;;;;;;;12.80;11.70;;;22.80;65.40;;;;;;5029298;28;21260;-44
2022/06/04 00:23:17;;;;;;;11.93;10.77;;;22.70;66.20;;;;;;5029489;28;20499;-42
2022/06/04 00:25:47;;;;;;;11.20;10.30;;;22.70;65.90;;;;;;5029165;28;20432;-43
2022/06/04 00:28:14;;;;;;;12.40;11.20;;;22.80;66.30;;;;;;5029547;28;20197;-43
2022/06/04 00:30:40;;;;;;;11.40;10.37;;;22.90;65.10;;;;;;5029041;28;20436;-43
2022/06/04 00:33:06;;;;;;;10.47;9.37;;;22.90;64.80;;;;;;5030047;28;20416;-42
2022/06/04 00:35:33;;;;;;;10.10;9.30;;;22.90;64.60;;;;;;5027335;28;20463;-43
2022/06/04 00:37:59;;;;;;;9.57;8.87;;;22.90;64.60;;;;;;5029611;28;20192;-43
2022/06/04 00:40:49;;;;;;;9.53;8.83;;;22.70;65.40;;;;;;5029501;28;20468;-43
2022/06/04 00:43:17;;;;;;;10.20;9.40;;;22.70;65.60;;;;;;5029228;28;20206;-43
2022/06/04 00:46:32;;;;;;;10.20;9.40;;;22.80;65.50;;;;;;5028943;28;20431;-42
2022/06/04 00:48:58;;;;;;;9.67;8.77;;;22.90;65.20;;;;;;5007442;28;20460;-43
2022/06/04 00:51:25;;;;;;;9.83;9.10;;;22.80;65.00;;;;;;5023971;28;20436;-42
2022/06/04 00:53:51;;;;;;;9.43;8.63;;;22.70;65.10;;;;;;5029120;28;20225;-42
2022/06/04 00:56:44;;;;;;;11.53;9.97;;;22.80;65.10;;;;;;5028707;28;20440;-43
2022/06/04 00:59:35;;;;;;;9.33;8.47;;;22.80;64.90;;;;;;5029499;28;20432;-42
2022/06/04 01:02:41;;;;;;;9.50;8.80;;;22.80;64.70;;;;;;5026898;28;20575;-42
2022/06/04 01:05:29;;;;;;;11.80;8.90;;;22.60;64.80;;;;;;5029169;28;20439;-43
2022/06/04 01:08:18;;;;;;;8.70;8.00;;;22.60;65.10;;;;;;5029613;28;20427;-43
2022/06/04 01:11:11;;;;;;;9.47;8.60;;;22.70;65.10;;;;;;5032311;28;20432;-44
2022/06/04 01:13:45;;;;;;;9.10;8.03;;;22.70;65.10;;;;;;5032774;28;20966;-42
2022/06/04 01:16:29;;;;;;;8.90;8.00;;;22.70;65.00;;;;;;5032177;28;20435;-43
2022/06/04 01:19:19;;;;;;;9.40;8.60;;;22.50;65.80;;;;;;5032709;28;20478;-43
2022/06/04 01:21:53;;;;;;;10.53;8.53;;;22.30;66.80;;;;;;5032011;28;20562;-43
2022/06/04 01:24:36;;;;;;;9.20;8.30;;;22.30;67.10;;;;;;5032608;28;20435;-45
2022/06/04 01:27:26;;;;;;;10.30;9.40;;;22.40;66.40;;;;;;5031971;28;20455;-43
2022/06/04 01:30:14;;;;;;;11.17;9.20;;;22.30;66.70;;;;;;5031166;28;20499;-44
2022/06/04 01:32:44;;;;;;;9.83;9.03;;;22.10;67.40;;;;;;5024384;28;20487;-43
2022/06/04 01:35:19;;;;;;;9.03;8.33;;;22.00;68.10;;;;;;5032192;28;20432;-45
2022/06/04 01:38:04;;;;;;;10.93;10.00;;;22.00;68.00;;;;;;5032239;28;20439;-42
2022/06/04 01:43:27;;;;;;;8.67;7.90;;;22.20;66.90;;;;;;5032273;28;20474;-46
2022/06/04 01:45:58;;;;;;;9.30;8.50;;;22.20;67.20;;;;;;5031963;28;21287;-43
2022/06/04 01:48:26;;;;;;;10.00;9.00;;;22.10;67.50;;;;;;5032156;28;20916;-46
2022/06/04 01:50:56;;;;;;;9.53;8.70;;;21.90;67.50;;;;;;5031717;28;20481;-44
2022/06/04 01:53:36;;;;;;;9.80;9.07;;;21.80;68.60;;;;;;5031868;28;20451;-43
2022/06/04 01:56:07;;;;;;;10.63;9.63;;;21.60;69.50;;;;;;5029810;28;20428;-43
2022/06/04 01:58:43;;;;;;;9.80;9.00;;;21.30;70.40;;;;;;5032157;28;20452;-43
2022/06/04 02:01:12;;;;;;;10.17;9.30;;;21.30;70.70;;;;;;5031240;28;20542;-43
2022/06/04 02:03:50;;;;;;;10.00;9.30;;;21.30;70.50;;;;;;5031842;28;20490;-42
2022/06/04 02:06:22;;;;;;;10.10;9.20;;;21.30;70.50;;;;;;5031636;28;20517;-42
2022/06/04 02:09:03;;;;;;;10.33;9.20;;;21.10;71.30;;;;;;5032031;28;20763;-42
2022/06/04 02:11:30;;;;;;;9.57;8.53;;;21.00;71.70;;;;;;5031481;28;20530;-43
2022/06/04 02:13:59;;;;;;;9.87;9.07;;;21.10;71.10;;;;;;5031315;28;20432;-43
2022/06/04 02:16:50;;;;;;;10.43;9.53;;;21.20;70.50;;;;;;5031195;28;20428;-43
2022/06/04 02:19:15;;;;;;;9.37;8.63;;;21.40;69.60;;;;;;5031465;28;20845;-43
2022/06/04 02:21:41;;;;;;;9.33;8.63;;;21.30;70.00;;;;;;5031106;28;20505;-42
2022/06/04 02:24:08;;;;;;;9.60;8.67;;;21.40;69.50;;;;;;5029744;28;20680;-43
2022/06/04 02:26:35;;;;;;;11.13;10.30;;;21.30;69.50;;;;;;5030975;28;20485;-42
2022/06/04 02:29:01;;;;;;;9.00;8.30;;;21.20;70.10;;;;;;5031584;28;20452;-43
2022/06/04 02:31:37;;;;;;;11.10;8.80;;;21.30;70.00;;;;;;5030905;28;20782;-43
2022/06/04 02:34:23;;;;;;;9.90;9.00;;;21.40;69.30;;;;;;5031025;28;20435;-43
2022/06/04 02:37:13;;;;;;;9.43;8.63;;;21.50;69.10;;;;;;5030903;28;20459;-42
2022/06/04 02:39:59;;;;;;;9.60;8.90;;;21.50;68.50;;;;;;5031143;28;20440;-42
2022/06/04 02:43:13;;;;;;;9.03;8.33;;;21.60;68.40;;;;;;5030853;28;20847;-43
2022/06/04 02:45:44;;;;;;;10.30;9.20;;;21.50;68.20;;;;;;4988885;28;21313;-42
2022/06/04 02:48:15;;;;;;;8.43;7.57;;;21.50;68.40;;;;;;4989121;28;20441;-42
2022/06/04 02:50:48;;;;;;;9.77;8.77;;;21.30;69.40;;;;;;5012299;28;20471;-42
2022/06/04 02:53:15;;;;;;;9.37;8.53;;;20.90;71.20;;;;;;5030732;28;20460;-42
2022/06/04 02:55:47;;;;;;;9.63;8.73;;;20.70;71.80;;;;;;5030584;28;20435;-43
2022/06/04 02:58:15;;;;;;;9.37;8.40;;;20.80;71.70;;;;;;5030889;28;20428;-42
2022/06/04 03:00:42;;;;;;;9.33;8.63;;;20.90;70.80;;;;;;5030405;28;20480;-43
2022/06/04 03:03:13;;;;;;;9.00;8.10;;;20.90;70.80;;;;;;5030317;28;20444;-42
2022/06/04 03:05:50;;;;;;;9.13;8.23;;;20.90;70.80;;;;;;5030433;28;20471;-43
2022/06/04 03:08:16;;;;;;;8.70;7.80;;;21.00;70.20;;;;;;5030895;28;20423;-42
2022/06/04 03:10:42;;;;;;;8.67;8.07;;;21.10;69.80;;;;;;5030435;28;20474;-43
2022/06/04 03:13:07;;;;;;;9.23;7.60;;;20.90;70.30;;;;;;5030315;28;20193;-43
2022/06/04 03:15:33;;;;;;;8.47;7.73;;;20.90;71.30;;;;;;5030116;28;20597;-43
2022/06/04 03:17:59;;;;;;;10.17;9.27;;;20.50;73.20;;;;;;5029059;28;20621;-42
2022/06/04 03:20:26;;;;;;;9.80;8.80;;;20.40;73.50;;;;;;5030546;28;20215;-44
2022/06/04 03:22:53;;;;;;;9.00;8.27;;;20.50;73.20;;;;;;5029847;28;20197;-44
2022/06/04 03:25:19;;;;;;;8.37;7.30;;;20.60;72.80;;;;;;5030100;28;20427;-42
2022/06/04 03:27:46;;;;;;;9.33;8.50;;;20.70;71.90;;;;;;5029956;28;20954;-42
2022/06/04 03:30:13;;;;;;;10.57;7.80;;;20.70;71.70;;;;;;5030257;28;20841;-44
2022/06/04 03:32:39;;;;;;;9.60;8.63;;;20.80;71.50;;;;;;5029392;28;20801;-42
2022/06/04 03:35:06;;;;;;;9.23;8.33;;;20.70;71.40;;;;;;5030124;28;20515;-42
2022/06/04 03:37:33;;;;;;;9.80;8.77;;;20.70;71.30;;;;;;5029852;28;20431;-42
2022/06/04 03:39:59;;;;;;;9.20;8.50;;;20.70;71.90;;;;;;5030245;28;20629;-42
2022/06/04 03:42:24;;;;;;;9.07;8.37;;;20.70;71.70;;;;;;5029842;28;20508;-43
2022/06/04 03:44:50;;;;;;;8.17;7.57;;;20.90;71.30;;;;;;5027988;28;20193;-43
2022/06/04 03:47:17;;;;;;;9.40;8.67;;;21.10;70.70;;;;;;5029769;28;20304;-42
2022/06/04 03:49:44;;;;;;;8.80;7.50;;;21.10;70.20;;;;;;5030074;28;20189;-42
2022/06/04 03:52:11;;;;;;;9.63;7.80;;;21.10;69.90;;;;;;5029324;28;20959;-42
2022/06/04 03:54:52;;;;;;;8.33;7.73;;;21.20;69.50;;;;;;5029478;28;20466;-43
2022/06/04 03:57:38;;;;;;;8.30;7.70;;;21.30;69.20;;;;;;5029505;28;20424;-43
2022/06/04 04:00:11;;;;;;;8.27;7.67;;;21.40;69.00;;;;;;5029810;28;20526;-42
2022/06/04 04:02:36;;;;;;;8.67;7.90;;;21.50;68.70;;;;;;5029449;28;20452;-43
2022/06/04 04:05:04;;;;;;;8.17;7.57;;;21.40;68.60;;;;;;5029768;28;20811;-42
2022/06/04 04:07:31;;;;;;;8.60;7.83;;;21.40;68.70;;;;;;5029389;28;20189;-42
2022/06/04 04:09:56;;;;;;;9.20;8.30;;;21.50;68.60;;;;;;5028736;28;21207;-44
2022/06/04 04:12:22;;;;;;;8.60;7.70;;;21.50;68.30;;;;;;5028947;28;20515;-44
2022/06/04 04:14:48;;;;;;;8.50;7.80;;;21.60;68.00;;;;;;5029677;28;20189;-42
2022/06/04 04:17:13;;;;;;;9.03;8.27;;;21.50;68.60;;;;;;5029235;28;20201;-42
2022/06/04 04:19:39;;;;;;;8.27;7.67;;;21.50;68.60;;;;;;5029821;28;20254;-44
2022/06/04 04:22:04;;;;;;;8.30;7.50;;;21.50;68.60;;;;;;5028998;28;20614;-42
2022/06/04 04:24:30;;;;;;;7.47;6.87;;;21.60;68.50;;;;;;5029582;28;20217;-44
2022/06/04 04:26:56;;;;;;;8.47;7.77;;;21.60;68.40;;;;;;5029271;28;20201;-42
2022/06/04 04:29:21;;;;;;;8.13;7.40;;;21.50;68.60;;;;;;5030017;28;20564;-42
2022/06/04 04:31:47;;;;;;;8.00;7.30;;;21.50;68.50;;;;;;5029167;28;20193;-42
2022/06/04 04:34:13;;;;;;;7.40;6.90;;;21.50;69.60;;;;;;5029424;28;20189;-42
2022/06/04 04:36:39;;;;;;;8.30;7.43;;;21.40;69.40;;;;;;5028935;28;20276;-43
2022/06/04 04:39:05;;;;;;;8.37;7.57;;;21.30;69.70;;;;;;5028489;28;20204;-42
2022/06/04 04:41:30;;;;;;;7.57;6.87;;;21.30;69.80;;;;;;5028841;28;20643;-42
2022/06/04 04:43:56;;;;;;;8.03;7.33;;;20.90;71.80;;;;;;5031572;28;20189;-43
2022/06/04 04:46:21;;;;;;;7.47;6.70;;;20.80;72.10;;;;;;5032922;28;20189;-43
2022/06/04 04:48:47;;;;;;;8.83;8.00;;;20.80;72.60;;;;;;5033677;28;20230;-42
2022/06/04 04:51:17;;;;;;;8.77;8.07;;;21.00;72.10;;;;;;5032622;28;20630;-42
2022/06/04 04:53:44;;;;;;;11.43;8.00;;;21.10;71.30;;;;;;5033023;28;20903;-42
2022/06/04 04:56:14;;;;;;;8.83;7.40;;;21.00;72.20;;;;;;5032901;28;20723;-43
2022/06/04 04:58:39;;;;;;;8.30;7.33;;;21.20;72.10;;;;;;5033264;28;20432;-43
2022/06/04 05:01:05;;;;;;;7.87;7.27;;;21.30;71.30;;;;;;5032170;28;20498;-42
2022/06/04 05:03:31;;;;;;;8.83;6.87;;;21.40;71.40;;;;;;5032840;28;20628;-44
2022/06/04 05:05:59;;;;;;;8.57;7.87;;;21.40;72.00;;;;;;5031144;28;20189;-42
2022/06/04 05:08:24;;;;;;;7.63;6.93;;;21.30;72.90;;;;;;5032889;28;20427;-42
2022/06/04 05:10:50;;;;;;;7.83;7.23;;;21.40;73.10;;;;;;5032417;28;20430;-43
2022/06/04 05:13:15;;;;;;;8.37;7.40;;;21.50;73.00;;;;;;5032808;28;20193;-42
2022/06/04 05:15:41;;;;;;;8.43;7.63;;;21.70;72.60;;;;;;5032238;28;20239;-42
2022/06/04 05:18:07;;;;;;;7.50;6.90;;;21.70;72.40;;;;;;5032991;28;20272;-42
2022/06/04 05:20:34;;;;;;;8.20;7.00;;;21.90;72.20;;;;;;5032491;28;20217;-42
2022/06/04 05:23:00;;;;;;;7.97;7.17;;;22.10;71.10;;;;;;5032193;28;20196;-43
2022/06/04 05:25:25;;;;;;;7.20;6.60;;;22.20;70.30;;;;;;5032730;28;21704;-42
2022/06/04 05:27:51;;;;;;;7.37;6.77;;;22.20;69.70;;;;;;5032560;28;20515;-42
2022/06/04 05:30:16;;;;;;;8.33;7.63;;;22.10;69.80;;;;;;5032844;28;20216;-42
2022/06/04 05:32:42;;;;;;;7.87;7.10;;;22.00;70.60;;;;;;5030416;28;20201;-43
2022/06/04 05:35:08;;;;;;;8.53;7.60;;;22.20;70.30;;;;;;5031921;28;20554;-42
2022/06/04 05:37:34;;;;;;;9.27;7.30;;;22.40;69.70;;;;;;5032035;28;20189;-43
2022/06/04 05:40:00;;;;;;;7.60;7.00;;;22.50;69.10;;;;;;5032524;28;20696;-42
2022/06/04 05:42:25;;;;;;;7.47;6.97;;;22.60;68.60;;;;;;5031903;28;20263;-44
2022/06/04 05:44:52;;;;;;;7.07;6.57;;;22.50;68.40;;;;;;5031912;28;20251;-42
2022/06/04 05:47:18;;;;;;;6.90;6.30;;;22.60;68.60;;;;;;5032378;28;20626;-43
2022/06/04 05:49:44;;;;;;;8.40;7.60;;;22.60;68.00;;;;;;5032372;28;20474;-43
2022/06/04 05:52:09;;;;;;;7.93;7.33;;;22.60;68.00;;;;;;5031717;28;20197;-42
2022/06/04 05:54:35;;;;;;;7.27;6.67;;;22.70;68.30;;;;;;5031460;28;20247;-44
2022/06/04 05:57:01;;;;;;;7.37;6.80;;;22.80;68.10;;;;;;5031353;28;20197;-45
2022/06/04 05:59:26;;;;;;;8.03;6.93;;;22.90;67.80;;;;;;5030655;28;20284;-45
2022/06/04 06:01:52;;;;;;;7.90;7.30;;;22.90;67.50;;;;;;5031298;28;20323;-47
2022/06/04 06:04:22;;;;;;;9.03;6.73;;;22.80;67.10;;;;;;5031657;28;20648;-44
2022/06/04 06:06:50;;;;;;;7.57;6.87;;;22.90;67.10;;;;;;5031775;28;20643;-42
2022/06/04 06:09:21;;;;;;;7.63;7.13;;;22.90;67.20;;;;;;5032035;28;20429;-43
2022/06/04 06:11:48;;;;;;;11.03;8.20;;;22.70;68.10;;;;;;5031764;28;20431;-44
2022/06/04 06:14:14;;;;;;;9.43;8.50;;;22.70;68.40;;;;;;5031492;28;20459;-43
2022/06/04 06:16:45;;;;;;;11.20;10.20;;;22.70;69.30;;;;;;5031312;28;21314;-42
2022/06/04 06:19:12;;;;;;;9.60;8.70;;;22.90;69.50;;;;;;5031926;28;20416;-42
2022/06/04 06:21:39;;;;;;;8.53;7.83;;;22.80;70.40;;;;;;5031301;28;20854;-43
2022/06/04 06:24:08;;;;;;;8.93;7.90;;;22.60;70.80;;;;;;5029944;28;20436;-44
2022/06/04 06:26:40;;;;;;;8.30;7.60;;;22.80;70.70;;;;;;5029653;28;20462;-42
2022/06/04 06:29:06;;;;;;;6.20;5.70;;;22.90;70.70;;;;;;5031534;28;20424;-43
2022/06/04 06:31:33;;;;;;;7.43;6.73;;;22.80;69.40;;;;;;5031131;28;20973;-43
2022/06/04 06:33:59;;;;;;;6.73;6.20;;;22.70;68.80;;;;;;5031321;28;20197;-42
2022/06/04 06:36:24;;;;;;;7.50;6.90;;;22.80;68.70;;;;;;5030904;28;20908;-43
2022/06/04 06:38:50;;;;;;;7.50;6.90;;;22.60;69.50;;;;;;5031361;28;20521;-44
2022/06/04 06:41:19;;;;;;;8.40;7.60;;;22.70;70.30;;;;;;5030806;28;20278;-43
2022/06/04 06:43:50;;;;;;;8.33;7.50;;;22.60;71.50;;;;;;5030962;28;20428;-42
2022/06/04 06:46:26;;;;;;;8.40;7.70;;;22.60;72.40;;;;;;5031621;28;20505;-43
2022/06/04 06:48:59;;;;;;;8.43;7.73;;;22.60;72.80;;;;;;5051083;28;20445;-43
2022/06/04 06:51:34;;;;;;;10.60;7.43;;;22.70;73.20;;;;;;5049757;28;20477;-42
2022/06/04 06:54:00;;;;;;;8.57;7.90;;;22.80;74.00;;;;;;5049180;28;20434;-42
2022/06/04 06:56:29;;;;;;;9.00;8.07;;;22.80;73.20;;;;;;5030080;28;20430;-43
2022/06/04 06:58:56;;;;;;;11.17;8.33;;;22.90;73.20;;;;;;5030703;28;20624;-43
2022/06/04 07:01:24;;;;;;;9.07;8.27;;;23.00;72.70;;;;;;5029667;28;21006;-43
2022/06/04 07:03:50;;;;;;;9.37;7.40;;;22.90;73.40;;;;;;5030584;28;20443;-43
2022/06/04 07:06:33;;;;;;;9.87;9.00;;;22.70;74.30;;;;;;5029510;28;20436;-43
2022/06/04 07:09:01;;;;;;;9.20;8.40;;;22.90;74.40;;;;;;5030964;28;20276;-42
2022/06/04 07:11:27;;;;;;;10.73;9.73;;;23.00;74.50;;;;;;5029906;28;20432;-43
2022/06/04 07:13:53;;;;;;;8.70;7.93;;;23.10;74.60;;;;;;5030174;28;20432;-44
2022/06/04 07:16:19;;;;;;;8.77;8.07;;;23.20;74.90;;;;;;5030276;28;20950;-43
2022/06/04 07:18:45;;;;;;;9.07;8.17;;;23.20;74.50;;;;;;5028898;28;20962;-42
2022/06/04 07:21:11;;;;;;;10.40;9.40;;;23.20;74.70;;;;;;5029738;28;20574;-43
2022/06/04 07:23:38;;;;;;;8.87;8.10;;;23.10;75.30;;;;;;5030091;28;20203;-45
2022/06/04 07:26:05;;;;;;;9.10;8.30;;;23.00;75.70;;;;;;5030147;28;20224;-42
2022/06/04 07:28:32;;;;;;;9.83;8.83;;;23.10;75.40;;;;;;5029879;28;20982;-42
2022/06/04 07:30:58;;;;;;;9.03;8.23;;;23.30;75.20;;;;;;5029776;28;20436;-46
2022/06/04 07:33:26;;;;;;;9.67;8.77;;;23.40;75.30;;;;;;5028654;28;20477;-43
2022/06/04 07:35:51;;;;;;;9.20;8.40;;;23.50;75.40;;;;;;5029788;28;20467;-43
2022/06/04 07:38:17;;;;;;;9.73;8.93;;;23.50;75.40;;;;;;5030311;28;20959;-43
2022/06/04 07:40:44;;;;;;;9.57;8.80;;;23.60;75.50;;;;;;5029536;28;20224;-42
2022/06/04 07:43:11;;;;;;;9.70;8.90;;;23.70;75.80;;;;;;5029908;28;20436;-44
2022/06/04 07:45:37;;;;;;;10.63;9.73;;;23.80;76.10;;;;;;5027794;28;20436;-42
2022/06/04 07:48:04;;;;;;;11.20;10.10;;;23.90;76.20;;;;;;5030039;28;20455;-42
2022/06/04 07:50:31;;;;;;;9.70;8.90;;;24.00;75.10;;;;;;5029919;28;20428;-42
2022/06/04 07:53:00;;;;;;;11.13;10.23;;;24.10;74.20;;;;;;5029290;28;20436;-42
2022/06/04 07:55:26;;;;;;;10.70;9.90;;;24.20;74.50;;;;;;5029983;28;20463;-42
2022/06/04 07:57:53;;;;;;;12.23;11.20;;;24.10;75.30;;;;;;5029335;28;20489;-42
2022/06/04 08:00:25;;;;;;;11.17;10.27;;;24.30;75.50;;;;;;5030195;28;20483;-43
2022/06/04 08:02:53;;;;;;;12.37;11.30;;;24.30;74.30;;;;;;5028712;28;20436;-42
2022/06/04 08:05:19;;;;;;;12.43;11.43;;;24.40;74.10;;;;;;5030104;28;20424;-42
2022/06/04 08:07:45;;;;;;;10.93;10.03;;;24.60;74.90;;;;;;5029162;28;20454;-42
2022/06/04 08:10:11;;;;;;;12.47;11.23;;;24.90;73.70;;;;;;5030040;28;20211;-42
2022/06/04 08:12:47;;;;;;;13.33;11.50;;;25.00;73.00;;;;;;5027004;28;20240;-42
2022/06/04 08:15:14;;;;;;;11.57;10.47;;;25.20;72.80;;;;;;5030047;28;20474;-43
2022/06/04 08:17:40;;;;;;;15.80;10.53;;;25.40;72.10;;;;;;5031117;28;20443;-44
2022/06/04 08:20:06;;;;;;;12.63;11.50;;;25.50;72.40;;;;;;5033960;28;20523;-42
2022/06/04 08:22:34;;;;;;;12.40;11.20;;;25.70;70.50;;;;;;5032863;28;20923;-43
2022/06/04 08:24:59;;;;;;;12.80;11.77;;;26.00;71.00;;;;;;5033732;28;20807;-44
2022/06/04 08:27:28;;;;;;;11.77;10.77;;;26.10;70.30;;;;;;5033337;28;20428;-47
2022/06/04 08:29:53;;;;;;;12.27;11.30;;;26.40;69.50;;;;;;5033866;28;20588;-43
2022/06/04 08:32:20;;;;;;;11.37;10.23;;;26.60;67.80;;;;;;5033066;28;20420;-43
2022/06/04 08:34:46;;;;;;;11.87;10.97;;;26.70;65.10;;;;;;5033604;28;20193;-42
2022/06/04 08:37:12;;;;;;;11.60;10.60;;;26.80;64.60;;;;;;5033095;28;20781;-43
2022/06/04 08:39:38;;;;;;;11.47;10.47;;;26.80;62.50;;;;;;5032002;28;20190;-43
2022/06/04 08:42:17;;;;;;;11.13;10.23;;;26.80;62.60;;;;;;5033022;28;20488;-43
2022/06/04 08:44:44;;;;;;;10.43;9.70;;;26.80;62.90;;;;;;5033105;28;20193;-43
2022/06/04 08:47:10;;;;;;;11.30;10.40;;;26.90;63.60;;;;;;5032989;28;20435;-43
2022/06/04 08:49:40;;;;;;;11.90;11.10;;;27.10;62.30;;;;;;5033321;28;20797;-43
2022/06/04 08:52:11;;;;;;;10.00;9.30;;;27.30;62.80;;;;;;5032674;28;20288;-43
2022/06/04 08:57:33;;;;;;;10.40;9.40;;;27.70;62.70;;;;;;5032625;28;20426;-42
2022/06/04 09:00:07;;;;;;;11.00;10.00;;;27.80;60.60;;;;;;5033245;28;20471;-43
2022/06/04 09:03:07;;;;;;;9.90;9.20;;;28.00;58.80;;;;;;5031782;28;20488;-43
2022/06/04 09:06:05;;;;;;;10.20;9.30;;;28.20;58.90;;;;;;5030696;28;20530;-44
2022/06/04 09:08:55;;;;;;;9.90;9.10;;;28.40;57.30;;;;;;5029759;28;20932;-44
2022/06/04 09:11:44;;;;;;;9.83;8.60;;;28.50;58.10;;;;;;5032207;28;20570;-43
2022/06/04 09:14:31;;;;;;;10.47;9.50;;;28.60;58.70;;;;;;5032593;28;20435;-45
2022/06/04 09:17:02;;;;;;;8.93;8.23;;;28.80;56.00;;;;;;5032361;28;20806;-43
2022/06/04 09:19:34;;;;;;;9.57;8.80;;;29.00;55.60;;;;;;5032991;28;20455;-45
2022/06/04 09:22:02;;;;;;;10.30;9.50;;;29.00;57.50;;;;;;5032100;28;20552;-44
2022/06/04 09:24:28;;;;;;;10.87;10.00;;;29.20;56.30;;;;;;5032353;28;20436;-47
2022/06/04 09:27:14;;;;;;;10.77;9.73;;;29.30;55.20;;;;;;5031988;28;20514;-43
2022/06/04 09:29:52;;;;;;;10.80;9.80;;;29.30;55.60;;;;;;5031815;28;20201;-48
2022/06/04 09:32:45;;;;;;;9.93;9.23;;;29.40;55.30;;;;;;5032151;28;20502;-44
2022/06/04 09:35:32;;;;;;;8.20;7.60;;;29.60;55.00;;;;;;5030873;28;20436;-43
2022/06/04 09:37:59;;;;;;;8.70;8.10;;;29.70;55.10;;;;;;5032030;28;20900;-44
2022/06/04 09:40:29;;;;;;;11.97;11.03;;;29.80;53.90;;;;;;5032362;28;20440;-44
2022/06/04 09:43:14;;;;;;;10.40;9.60;;;30.00;55.00;;;;;;5031714;28;20486;-43
2022/06/04 09:45:41;;;;;;;10.40;9.63;;;30.10;52.90;;;;;;5031871;28;20445;-43
2022/06/04 09:48:21;;;;;;;10.03;9.33;;;30.10;53.20;;;;;;5032273;28;20436;-44
2022/06/04 09:51:06;;;;;;;9.20;8.40;;;30.10;54.40;;;;;;5031903;28;20466;-45
2022/06/04 09:53:40;;;;;;;9.60;8.90;;;30.10;54.70;;;;;;5032130;28;20435;-44
2022/06/04 09:56:31;;;;;;;8.50;7.83;;;30.10;53.10;;;;;;5031832;28;20446;-47
2022/06/04 09:59:18;;;;;;;8.40;7.70;;;30.10;53.20;;;;;;5032111;28;20475;-44
2022/06/04 10:02:19;;;;;;;9.40;8.70;;;30.10;53.00;;;;;;5029766;28;20491;-44
2022/06/04 10:04:48;;;;;;;9.77;8.97;;;29.70;53.70;;;;;;5024876;28;20450;-43
2022/06/04 10:07:18;;;;;;;10.23;9.33;;;29.70;53.80;;;;;;5031192;28;20420;-43
2022/06/04 10:09:56;;;;;;;10.00;9.30;;;29.80;53.20;;;;;;5031911;28;20982;-43
2022/06/04 10:15:30;;;;;;;11.37;10.40;;;29.90;53.60;;;;;;5032313;28;20486;-43
2022/06/04 10:18:32;;;;;;;12.90;11.80;;;29.90;54.10;;;;;;5031120;28;20464;-43
2022/06/04 10:21:16;;;;;;;14.40;13.20;;;29.70;53.60;;;;;;5024102;28;21021;-43
2022/06/04 10:23:45;;;;;;;13.10;12.10;;;29.60;53.90;;;;;;5031163;28;20440;-43
2022/06/04 10:26:29;;;;;;;14.03;12.97;;;29.50;54.20;;;;;;5030993;28;20448;-44
2022/06/04 10:29:10;;;;;;;15.57;14.47;;;29.40;54.50;;;;;;5030052;28;20927;-43
2022/06/04 10:31:45;;;;;;;16.03;14.53;;;29.30;54.10;;;;;;5030999;28;20440;-44
2022/06/04 10:34:23;;;;;;;15.80;14.50;;;29.20;54.60;;;;;;5031113;28;20458;-43
2022/06/04 10:37:17;;;;;;;16.17;14.87;;;29.10;54.20;;;;;;5031046;28;20454;-44
2022/06/04 10:40:20;;;;;;;16.00;14.70;;;28.90;54.40;;;;;;5031224;28;20455;-42
2022/06/04 10:43:05;;;;;;;15.37;14.27;;;28.80;54.60;;;;;;5030226;28;20494;-43
2022/06/04 10:45:54;;;;;;;16.87;15.67;;;28.60;55.30;;;;;;5031322;28;20519;-43
2022/06/04 10:48:47;;;;;;;18.47;16.97;;;28.40;57.00;;;;;;5031084;28;20531;-45
2022/06/04 10:51:26;;;;;;;16.40;14.70;;;28.30;57.30;;;;;;5030359;28;20985;-44
2022/06/04 10:54:29;;;;;;;18.83;17.20;;;28.20;57.50;;;;;;5030096;28;20776;-43
2022/06/04 10:57:00;;;;;;;18.10;16.70;;;27.90;57.30;;;;;;5024475;28;20482;-43
2022/06/04 10:59:41;;;;;;;18.13;16.63;;;27.90;57.90;;;;;;5030792;28;20432;-44
2022/06/04 11:02:23;;;;;;;18.30;16.60;;;27.80;58.20;;;;;;5030542;28;20660;-43
2022/06/04 11:04:59;;;;;;;17.73;16.33;;;27.90;58.00;;;;;;5031420;28;20507;-43
2022/06/04 11:07:33;;;;;;;18.87;17.37;;;28.00;57.20;;;;;;5030373;28;20594;-43
2022/06/04 11:09:59;;;;;;;19.10;17.60;;;28.00;56.70;;;;;;5030703;28;20916;-43
2022/06/04 11:12:30;;;;;;;17.87;16.47;;;27.90;56.50;;;;;;5030164;28;20459;-44
2022/06/04 11:15:03;;;;;;;20.20;18.40;;;28.00;56.50;;;;;;5030773;28;20440;-43
2022/06/04 11:17:51;;;;;;;20.30;18.40;;;27.90;56.90;;;;;;5030174;28;20515;-45
2022/06/04 11:20:22;;;;;;;19.70;17.80;;;28.00;56.90;;;;;;5030800;28;20440;-47
2022/06/04 11:23:15;;;;;;;19.03;17.47;;;27.80;57.20;;;;;;5028327;28;20829;-44
2022/06/04 11:25:46;;;;;;;17.47;15.83;;;27.80;57.00;;;;;;5029942;28;20463;-43
2022/06/04 11:28:16;;;;;;;18.53;17.07;;;27.60;57.50;;;;;;5030204;28;21065;-43
2022/06/04 11:31:28;;;;;;;16.83;15.53;;;27.60;57.50;;;;;;5029811;28;20450;-43
2022/06/04 11:34:05;;;;;;;16.90;15.30;;;27.60;57.50;;;;;;5029950;28;20442;-44
2022/06/04 11:36:34;;;;;;;16.37;14.93;;;27.60;57.50;;;;;;5029722;28;20519;-47
2022/06/04 11:39:24;;;;;;;16.27;14.90;;;27.60;57.50;;;;;;5030013;28;20432;-46
2022/06/04 11:42:02;;;;;;;16.57;15.23;;;27.60;57.60;;;;;;5029594;28;20529;-46
2022/06/04 11:44:40;;;;;;;16.23;14.93;;;27.60;58.10;;;;;;5029914;28;20462;-44
2022/06/04 11:47:38;;;;;;;14.50;13.40;;;27.30;58.10;;;;;;5029713;28;20463;-44
2022/06/04 11:50:25;;;;;;;14.37;13.27;;;27.50;58.10;;;;;;5027987;28;20571;-45
2022/06/04 11:53:21;;;;;;;14.93;13.63;;;27.60;58.30;;;;;;5028941;28;20535;-45
2022/06/04 11:56:09;;;;;;;15.80;14.20;;;27.70;57.40;;;;;;5029551;28;20447;-43
2022/06/04 11:58:50;;;;;;;15.07;13.97;;;27.70;57.50;;;;;;5018255;28;20462;-45
2022/06/04 12:01:25;;;;;;;14.47;13.07;;;27.70;57.30;;;;;;5029286;28;20490;-43
2022/06/04 12:03:59;;;;;;;15.00;13.70;;;27.80;56.80;;;;;;5029707;28;20830;-45
2022/06/04 12:06:34;;;;;;;12.60;11.53;;;27.80;57.10;;;;;;5029161;28;20412;-45
2022/06/04 12:09:07;;;;;;;14.23;12.83;;;27.80;57.30;;;;;;5029758;28;20486;-44
2022/06/04 12:11:51;;;;;;;17.77;16.07;;;27.90;57.00;;;;;;5029549;28;20432;-45
2022/06/04 12:14:39;;;;;;;13.73;12.47;;;28.00;56.50;;;;;;5029545;28;20435;-45
2022/06/04 12:17:30;;;;;;;15.03;13.93;;;28.00;56.10;;;;;;5028054;28;20430;-48
2022/06/04 12:26:29;;;;;;;13.47;12.43;;;28.20;55.90;;;;;;5029699;28;20853;-47
2022/06/04 12:28:55;;;;;;;14.10;13.00;;;28.30;56.40;;;;;;5029547;28;20439;-46
2022/06/04 12:31:35;;;;;;;13.70;12.60;;;28.40;55.70;;;;;;5029250;28;20655;-48
2022/06/04 12:34:21;;;;;;;15.10;13.70;;;28.60;54.70;;;;;;5029124;28;20435;-44
2022/06/04 12:36:52;;;;;;;13.63;12.50;;;28.80;54.00;;;;;;5028769;28;20447;-43
2022/06/04 12:39:23;;;;;;;13.90;12.70;;;28.80;54.80;;;;;;5029588;28;20423;-46
2022/06/04 12:41:51;;;;;;;13.87;12.70;;;28.90;54.20;;;;;;5027528;28;20498;-43
2022/06/04 12:44:27;;;;;;;12.23;11.33;;;29.10;53.10;;;;;;5029551;28;20493;-43
2022/06/04 12:46:54;;;;;;;13.63;12.43;;;29.10;53.40;;;;;;5028867;28;20455;-43
2022/06/04 12:49:21;;;;;;;12.50;11.60;;;29.30;53.10;;;;;;5029866;28;20431;-44
2022/06/04 12:51:59;;;;;;;12.93;11.33;;;29.60;53.40;;;;;;5029026;28;20443;-44
2022/06/04 12:54:44;;;;;;;12.67;11.67;;;29.90;52.30;;;;;;5029174;28;20770;-48
2022/06/04 12:57:21;;;;;;;11.50;10.60;;;30.00;52.40;;;;;;5028741;28;20825;-46
2022/06/04 12:59:51;;;;;;;9.03;8.33;;;30.20;52.70;;;;;;5029433;28;20885;-44
2022/06/04 13:02:36;;;;;;;10.23;9.47;;;30.40;51.30;;;;;;5028484;28;20541;-45
2022/06/04 13:05:14;;;;;;;11.70;10.70;;;30.50;51.50;;;;;;5031800;28;20436;-43
2022/06/04 13:07:59;;;;;;;9.93;9.23;;;30.70;49.90;;;;;;5032348;28;20475;-43
2022/06/04 13:11:00;;;;;;;10.63;9.70;;;30.60;50.00;;;;;;5031709;28;20505;-44
2022/06/04 13:13:41;;;;;;;9.77;9.07;;;30.60;49.90;;;;;;5025426;28;20442;-48
2022/06/04 13:16:18;;;;;;;9.80;9.00;;;30.80;49.70;;;;;;5032104;28;20428;-43
2022/06/04 13:18:56;;;;;;;12.30;11.20;;;30.80;49.20;;;;;;5032723;28;20427;-48
2022/06/04 13:21:22;;;;;;;9.73;8.80;;;31.00;48.50;;;;;;5032243;28;20494;-49
2022/06/04 13:23:58;;;;;;;10.47;9.57;;;31.20;48.70;;;;;;5032694;28;20905;-44
2022/06/04 13:26:38;;;;;;;10.73;10.03;;;31.30;48.70;;;;;;5032165;28;20443;-48
2022/06/04 13:29:22;;;;;;;7.70;7.00;;;31.30;47.00;;;;;;5032794;28;20517;-48